Time;durP1;ratioP1;P1;durP2;ratioP2;P2;SDS_P1;SDS_P2;PMS_P1;PMS_P2;Temp;Humidity;BMP_temperature;BMP_pressure;BME280_temperature;BME280_humidity;BME280_pressure;Samples;Min_cycle;Max_cycle;Signal;HPM_P1;HPM_P2
2023/01/04 00:01:00;;;;;;;10.47;9.47;;;;;;;10.13;63.19;95848.72;5010173;28;20195;-67
2023/01/04 00:03:26;;;;;;;11.10;9.03;;;;;;;10.23;62.48;95844.34;5002609;28;20273;-67
2023/01/04 00:05:52;;;;;;;10.37;8.83;;;;;;;10.10;63.03;95836.69;5009534;28;20246;-67
2023/01/04 00:08:17;;;;;;;12.23;9.60;;;;;;;10.29;62.59;95837.78;5005503;28;20253;-67
2023/01/04 00:10:42;;;;;;;9.57;8.47;;;;;;;10.21;62.73;95850.72;5011886;28;20227;-67
2023/01/04 00:13:08;;;;;;;11.60;9.60;;;;;;;10.12;63.22;95847.88;5009697;28;20187;-67
2023/01/04 00:15:34;;;;;;;9.93;8.80;;;;;;;10.07;63.11;95850.06;5012796;28;20183;-67
2023/01/04 00:17:59;;;;;;;11.70;9.00;;;;;;;10.28;62.56;95849.28;5003872;28;20283;-67
2023/01/04 00:20:24;;;;;;;9.00;8.20;;;;;;;10.35;62.39;95850.44;5002016;28;20220;-67
2023/01/04 00:22:50;;;;;;;10.37;9.17;;;;;;;10.37;61.93;95845.84;5001288;28;20307;-67
2023/01/04 00:25:15;;;;;;;9.40;8.50;;;;;;;10.32;61.95;95848.06;4991620;28;20196;-67
2023/01/04 00:27:41;;;;;;;9.33;8.33;;;;;;;10.11;62.45;95850.66;5002004;28;20176;-67
2023/01/04 00:30:07;;;;;;;9.90;8.90;;;;;;;10.10;62.94;95847.22;5003341;28;20235;-67
2023/01/04 00:32:32;;;;;;;10.03;9.03;;;;;;;10.15;62.26;95842.38;4994291;28;20222;-66
2023/01/04 00:34:58;;;;;;;9.97;8.03;;;;;;;10.14;62.11;95840.72;5002800;28;20281;-67
2023/01/04 00:37:23;;;;;;;9.27;8.40;;;;;;;10.12;62.36;95852.31;5006710;28;20228;-67
2023/01/04 00:39:48;;;;;;;8.93;8.03;;;;;;;10.31;61.52;95857.72;5017854;28;20254;-67
2023/01/04 00:42:14;;;;;;;9.63;8.63;;;;;;;10.15;62.11;95871.28;5013603;28;20230;-66
2023/01/04 00:44:39;;;;;;;9.33;8.33;;;;;;;10.10;62.07;95849.84;5004450;28;20275;-67
2023/01/04 00:47:05;;;;;;;8.90;8.00;;;;;;;9.99;62.06;95849.88;5022490;28;20215;-66
2023/01/04 00:49:31;;;;;;;9.00;7.70;;;;;;;9.95;62.44;95856.38;5001352;28;20237;-66
2023/01/04 00:51:57;;;;;;;8.93;8.03;;;;;;;10.07;62.17;95852.69;5008306;28;20654;-66
2023/01/04 00:54:22;;;;;;;9.00;8.00;;;;;;;10.12;61.61;95855.78;5002359;28;20297;-65
2023/01/04 00:56:48;;;;;;;11.77;8.47;;;;;;;10.15;61.77;95841.53;5023348;28;20298;-68
2023/01/04 00:59:16;;;;;;;13.80;8.43;;;;;;;10.07;62.02;95857.94;5007578;28;20223;-66
2023/01/04 01:01:42;;;;;;;9.30;8.37;;;;;;;10.06;61.85;95861.56;5003941;28;20284;-66
2023/01/04 01:04:11;;;;;;;9.47;8.33;;;;;;;10.09;61.54;95849.94;5008568;28;20187;-66
2023/01/04 01:06:37;;;;;;;10.73;8.97;;;;;;;10.01;62.03;95855.84;5009285;28;20191;-66
2023/01/04 01:09:02;;;;;;;10.23;8.40;;;;;;;10.12;61.53;95860.19;5001702;28;20227;-66
2023/01/04 01:11:29;;;;;;;10.00;9.00;;;;;;;10.00;61.89;95869.13;5004603;28;20285;-66
2023/01/04 01:13:56;;;;;;;13.23;8.47;;;;;;;10.09;61.59;95869.19;4998126;28;20702;-66
2023/01/04 01:16:23;;;;;;;9.90;8.23;;;;;;;10.01;61.79;95871.59;5009817;28;20286;-66
2023/01/04 01:18:49;;;;;;;10.50;8.67;;;;;;;10.02;61.96;95878.50;5009997;28;20193;-66
2023/01/04 01:21:20;;;;;;;10.47;8.80;;;;;;;10.02;61.78;95880.31;5010554;28;20215;-66
2023/01/04 01:23:47;;;;;;;10.50;8.93;;;;;;;10.05;61.53;95886.16;5008182;28;20233;-66
2023/01/04 01:26:15;;;;;;;12.03;8.80;;;;;;;10.01;61.91;95881.28;5012404;28;20741;-66
2023/01/04 01:28:41;;;;;;;9.33;8.37;;;;;;;10.03;61.68;95879.38;5009737;28;20230;-67
2023/01/04 01:31:06;;;;;;;12.50;9.57;;;;;;;9.97;62.08;95887.75;5025365;28;20187;-67
2023/01/04 01:33:34;;;;;;;10.27;9.13;;;;;;;9.80;62.48;95876.00;5003905;28;20195;-66
2023/01/04 01:36:01;;;;;;;10.47;8.57;;;;;;;9.79;62.68;95876.97;5019178;28;20444;-67
2023/01/04 01:38:26;;;;;;;11.33;10.10;;;;;;;9.85;62.38;95872.03;5004088;28;20223;-66
2023/01/04 01:40:52;;;;;;;10.10;9.10;;;;;;;9.86;62.51;95878.97;5009405;28;20232;-67
2023/01/04 01:43:20;;;;;;;11.37;8.97;;;;;;;10.05;61.43;95873.03;5024494;28;20207;-66
2023/01/04 01:45:56;;;;;;;13.00;9.50;;;;;;;10.00;61.89;95869.94;5008181;28;20242;-66
2023/01/04 01:48:26;;;;;;;10.80;9.27;;;;;;;9.86;62.35;95878.13;5008014;28;20237;-66
2023/01/04 01:50:56;;;;;;;11.63;9.37;;;;;;;9.84;62.40;95875.63;5016896;28;20581;-66
2023/01/04 01:53:25;;;;;;;10.07;8.90;;;;;;;9.82;62.72;95861.78;5002769;28;20261;-67
2023/01/04 01:55:51;;;;;;;12.83;9.80;;;;;;;10.00;62.03;95872.59;4999102;28;20223;-66
2023/01/04 01:58:36;;;;;;;10.33;9.20;;;;;;;10.08;61.77;95872.78;5006790;28;20179;-69
2023/01/04 02:01:01;;;;;;;12.23;9.90;;;;;;;10.02;61.93;95875.88;5003447;28;20213;-65
2023/01/04 02:03:40;;;;;;;13.93;9.53;;;;;;;9.93;62.42;95866.16;4996800;28;20210;-66
2023/01/04 02:06:10;;;;;;;11.03;9.20;;;;;;;9.70;63.09;95858.38;5024780;28;20229;-66
2023/01/04 02:08:37;;;;;;;14.20;9.83;;;;;;;9.87;62.57;95851.75;5005820;28;20231;-66
2023/01/04 02:11:03;;;;;;;10.80;9.70;;;;;;;9.81;62.71;95849.63;5007446;28;20223;-68
2023/01/04 02:16:37;;;;;;;11.43;9.80;;;;;;;9.81;62.88;95859.28;4999924;28;20190;-66
2023/01/04 02:19:16;;;;;;;13.87;10.40;;;;;;;9.79;62.77;95861.22;5023138;28;20617;-66
2023/01/04 02:22:19;;;;;;;11.67;10.37;;;;;;;9.77;62.72;95865.75;5017966;28;20277;-66
2023/01/04 02:24:50;;;;;;;11.23;10.10;;;;;;;9.71;63.07;95867.94;5006149;28;20278;-68
2023/01/04 02:27:28;;;;;;;12.43;11.13;;;;;;;9.74;62.97;95868.63;5009003;28;20219;-66
2023/01/04 02:30:16;;;;;;;11.40;10.13;;;;;;;9.85;62.53;95860.69;5004838;28;20231;-66
2023/01/04 02:32:52;;;;;;;13.43;10.63;;;;;;;9.68;63.10;95857.69;4950106;28;20226;-68
2023/01/04 02:35:40;;;;;;;13.53;10.20;;;;;;;9.68;63.07;95865.56;4972025;28;20229;-67
2023/01/04 02:38:22;;;;;;;12.50;11.20;;;;;;;9.55;63.54;95858.81;4973641;28;20236;-66
2023/01/04 02:41:01;;;;;;;12.37;9.90;;;;;;;9.56;63.58;95856.03;4968821;28;20220;-68
2023/01/04 02:46:38;;;;;;;13.53;11.23;;;;;;;9.42;64.26;95864.22;4969095;28;20270;-66
2023/01/04 02:51:49;;;;;;;13.87;11.97;;;;;;;9.38;64.71;95852.28;4970067;28;20191;-66
2023/01/04 02:54:20;;;;;;;14.90;11.50;;;;;;;9.53;64.03;95851.03;4971977;28;20243;-68
2023/01/04 02:56:58;;;;;;;13.70;10.97;;;;;;;9.54;63.88;95857.94;4968653;28;20270;-68
2023/01/04 02:59:48;;;;;;;13.30;11.97;;;;;;;9.45;64.56;95853.44;4972459;28;20248;-67
2023/01/04 03:07:59;;;;;;;14.53;12.37;;;;;;;9.50;64.15;95853.91;4967649;28;20256;-68
2023/01/04 03:10:39;;;;;;;13.77;12.30;;;;;;;9.48;64.10;95853.19;4992591;28;20223;-68
2023/01/04 03:13:18;;;;;;;15.80;11.43;;;;;;;9.32;64.87;95848.34;5008637;28;20183;-68
2023/01/04 03:15:50;;;;;;;13.77;12.47;;;;;;;9.29;64.67;95853.84;5006095;28;20246;-68
2023/01/04 03:18:22;;;;;;;15.60;12.60;;;;;;;9.31;64.57;95851.94;5003911;28;20257;-68
2023/01/04 03:20:51;;;;;;;12.60;11.10;;;;;;;9.43;64.11;95855.38;4989496;28;20238;-68
2023/01/04 03:37:47;;;;;;;14.37;12.17;;;;;;;9.43;64.30;95866.69;5010290;28;20232;-67
2023/01/04 03:49:16;;;;;;;14.67;13.20;;;;;;;9.12;64.91;95878.84;5014327;28;20302;-68
2023/01/04 03:51:44;;;;;;;14.30;12.50;;;;;;;9.12;65.01;95873.59;5011359;28;20222;-67
2023/01/04 03:54:28;;;;;;;15.97;12.47;;;;;;;9.00;65.50;95864.88;5006386;28;20675;-67
2023/01/04 03:56:55;;;;;;;13.83;11.47;;;;;;;8.94;65.55;95872.41;5026729;28;20329;-67
2023/01/04 03:59:22;;;;;;;13.53;11.10;;;;;;;8.90;65.68;95869.19;5006624;28;20230;-67
2023/01/04 04:01:48;;;;;;;13.53;11.90;;;;;;;8.93;65.51;95871.59;5015875;28;20233;-66
2023/01/04 04:09:43;;;;;;;13.73;12.33;;;;;;;8.94;65.78;95873.25;5008259;28;20230;-67
2023/01/04 04:12:08;;;;;;;14.30;11.07;;;;;;;8.82;66.03;95871.56;5008419;28;20222;-68
2023/01/04 04:14:34;;;;;;;14.30;11.30;;;;;;;8.95;65.78;95887.19;5006463;28;20227;-67
2023/01/04 04:16:59;;;;;;;13.30;11.67;;;;;;;9.04;65.75;95875.97;5011323;28;20269;-67
2023/01/04 04:19:25;;;;;;;12.90;11.37;;;;;;;8.96;66.02;95889.69;5017594;28;20213;-67
2023/01/04 04:21:50;;;;;;;13.13;11.67;;;;;;;8.95;65.89;95893.25;5029716;28;20180;-68
2023/01/04 04:24:18;;;;;;;17.57;11.10;;;;;;;9.22;65.01;95889.41;5005796;28;20218;-67
2023/01/04 04:26:44;;;;;;;13.73;11.77;;;;;;;9.02;65.46;95891.81;5006108;28;20224;-68
2023/01/04 04:29:09;;;;;;;12.47;11.10;;;;;;;8.87;65.82;95895.66;4996097;28;20253;-68
2023/01/04 04:31:34;;;;;;;13.60;11.60;;;;;;;9.00;65.69;95890.28;5005223;28;20197;-67
2023/01/04 04:34:00;;;;;;;16.53;12.00;;;;;;;8.95;65.62;95876.69;5024133;28;20188;-68
2023/01/04 04:36:25;;;;;;;12.93;11.53;;;;;;;9.11;65.24;95890.25;5009321;28;20234;-68
2023/01/04 04:38:51;;;;;;;14.10;11.87;;;;;;;9.19;64.80;95893.09;5021737;28;20226;-67
2023/01/04 04:44:00;;;;;;;11.30;10.10;;;;;;;8.95;64.89;95895.06;5004637;28;20233;-68
2023/01/04 04:46:26;;;;;;;14.23;11.30;;;;;;;8.95;65.00;95889.81;5007437;28;20194;-68
2023/01/04 04:48:51;;;;;;;13.90;11.03;;;;;;;8.92;64.96;95903.16;5022223;28;20318;-66
2023/01/04 04:51:17;;;;;;;14.80;10.77;;;;;;;8.94;64.83;95896.84;5005813;28;20236;-67
2023/01/04 04:53:46;;;;;;;15.20;11.50;;;;;;;8.95;65.09;95900.28;4998799;28;20309;-65
2023/01/04 04:56:11;;;;;;;15.00;11.33;;;;;;;9.01;65.14;95898.03;4987863;28;20276;-66
2023/01/04 04:58:37;;;;;;;13.60;12.13;;;;;;;9.00;65.28;95890.28;5009896;28;20265;-66
2023/01/04 05:01:03;;;;;;;12.90;11.63;;;;;;;9.14;64.50;95903.16;5002221;28;20189;-66
2023/01/04 05:03:29;;;;;;;15.23;11.43;;;;;;;9.15;64.75;95912.69;5013606;28;20291;-65
2023/01/04 05:05:54;;;;;;;13.33;11.80;;;;;;;9.20;64.46;95910.53;5010862;28;20730;-66
2023/01/04 05:08:19;;;;;;;15.10;11.57;;;;;;;9.20;64.51;95913.16;5005292;28;20227;-66
2023/01/04 05:10:45;;;;;;;15.23;12.80;;;;;;;9.17;64.66;95907.34;5003891;28;20188;-66
2023/01/04 05:13:12;;;;;;;15.73;12.37;;;;;;;9.11;65.17;95908.63;5010447;28;20225;-66
2023/01/04 05:15:48;;;;;;;13.57;12.07;;;;;;;9.31;64.36;95914.13;5003404;28;20250;-66
2023/01/04 05:18:15;;;;;;;14.47;12.93;;;;;;;9.27;64.78;95913.50;5022440;28;20250;-66
2023/01/04 05:20:42;;;;;;;15.30;12.27;;;;;;;9.05;65.33;95909.13;5011654;28;20313;-66
2023/01/04 05:23:10;;;;;;;14.13;12.73;;;;;;;9.06;65.25;95910.78;5010291;28;20250;-66
2023/01/04 05:25:36;;;;;;;14.30;12.87;;;;;;;9.20;64.65;95912.34;5007158;28;20187;-68
2023/01/04 05:28:01;;;;;;;13.80;12.27;;;;;;;8.87;65.60;95916.63;5019385;28;20191;-65
2023/01/04 05:33:11;;;;;;;15.93;13.33;;;;;;;9.01;65.57;95915.56;5003115;28;20226;-64
2023/01/04 05:35:37;;;;;;;14.67;13.17;;;;;;;8.81;65.88;95922.34;5008812;28;20234;-64
2023/01/04 05:38:02;;;;;;;14.27;12.33;;;;;;;8.88;65.89;95923.56;5003136;28;20558;-65
2023/01/04 05:40:28;;;;;;;17.77;12.90;;;;;;;9.10;65.18;95929.75;5012893;28;20207;-66
2023/01/04 05:42:53;;;;;;;14.20;11.97;;;;;;;9.10;64.92;95932.38;5003580;28;20226;-65
2023/01/04 05:45:20;;;;;;;17.90;13.00;;;;;;;8.98;65.21;95929.75;5022588;28;20303;-66
2023/01/04 05:47:48;;;;;;;14.87;13.27;;;;;;;9.01;65.39;95933.94;5008833;28;20226;-65
2023/01/04 05:50:14;;;;;;;14.70;12.17;;;;;;;9.05;64.76;95936.19;5008494;28;20366;-65
2023/01/04 05:52:44;;;;;;;14.47;12.00;;;;;;;9.06;64.40;95937.00;5019987;28;20214;-65
2023/01/04 05:55:10;;;;;;;14.50;11.67;;;;;;;9.03;64.69;95927.63;5004806;28;20199;-65
2023/01/04 05:57:36;;;;;;;16.90;12.10;;;;;;;9.04;64.71;95939.78;5005434;28;20269;-65
2023/01/04 06:00:02;;;;;;;15.03;12.20;;;;;;;8.91;65.17;95939.06;5018975;28;20233;-65
2023/01/04 06:02:29;;;;;;;14.40;12.10;;;;;;;9.06;64.71;95929.13;5004003;28;20309;-65
2023/01/04 06:04:55;;;;;;;15.00;11.67;;;;;;;9.04;64.43;95933.69;5003154;28;20231;-65
2023/01/04 06:07:21;;;;;;;14.57;12.17;;;;;;;9.07;64.21;95933.44;5008887;28;20195;-64
2023/01/04 06:09:46;;;;;;;14.67;12.50;;;;;;;9.06;64.44;95934.38;5007455;28;20215;-66
2023/01/04 06:12:12;;;;;;;14.40;12.23;;;;;;;8.93;65.11;95931.91;5010249;28;20238;-66
2023/01/04 06:14:38;;;;;;;13.63;11.80;;;;;;;9.13;64.12;95932.97;5007643;28;20362;-66
2023/01/04 06:17:04;;;;;;;14.80;12.07;;;;;;;9.16;64.01;95932.72;5006902;28;20233;-65
2023/01/04 06:19:29;;;;;;;18.40;12.67;;;;;;;9.02;64.46;95952.16;5004778;28;20298;-67
2023/01/04 06:21:56;;;;;;;12.27;11.07;;;;;;;9.09;64.25;95949.91;5001442;28;20219;-66
2023/01/04 06:24:21;;;;;;;11.97;10.67;;;;;;;8.76;65.28;95945.47;4995559;28;20327;-66
2023/01/04 06:26:47;;;;;;;14.50;12.23;;;;;;;8.67;65.92;95943.56;5003369;28;20344;-65
2023/01/04 06:29:12;;;;;;;13.60;10.73;;;;;;;8.86;64.51;95951.69;5003211;28;20288;-67
2023/01/04 06:31:38;;;;;;;11.67;10.47;;;;;;;8.96;64.41;95954.44;5000755;28;20222;-67
2023/01/04 06:34:04;;;;;;;12.57;10.97;;;;;;;8.85;64.48;95963.16;4999260;28;20217;-67
2023/01/04 06:36:29;;;;;;;12.93;11.60;;;;;;;8.97;63.98;95962.19;5018795;28;20233;-68
2023/01/04 06:38:59;;;;;;;14.53;11.83;;;;;;;8.95;64.31;95961.47;4990245;28;20231;-67
2023/01/04 06:41:25;;;;;;;13.10;11.40;;;;;;;9.00;64.06;95961.94;4998586;28;20227;-67
2023/01/04 06:43:50;;;;;;;12.83;11.30;;;;;;;9.11;63.51;95961.09;4985255;28;20204;-67
2023/01/04 06:46:16;;;;;;;12.33;11.03;;;;;;;9.03;63.61;95963.50;4989313;28;20210;-68
2023/01/04 06:48:42;;;;;;;12.83;11.10;;;;;;;9.08;63.53;95955.28;4969477;28;20259;-67
2023/01/04 06:51:07;;;;;;;14.57;12.10;;;;;;;9.20;63.04;95965.66;4998689;28;20248;-67
2023/01/04 06:53:33;;;;;;;13.47;11.10;;;;;;;9.38;62.65;95968.63;4979285;28;20239;-67
2023/01/04 06:55:58;;;;;;;12.07;10.80;;;;;;;9.09;63.23;95965.66;5000807;28;20233;-67
2023/01/04 06:58:24;;;;;;;12.23;10.93;;;;;;;9.02;63.52;95960.03;5000913;28;20569;-68
2023/01/04 07:00:53;;;;;;;11.93;10.73;;;;;;;9.03;63.90;95953.00;4986033;28;20275;-65
2023/01/04 07:03:19;;;;;;;12.40;10.53;;;;;;;9.14;63.36;95949.53;4993310;28;20224;-65
2023/01/04 07:05:45;;;;;;;12.13;10.50;;;;;;;9.02;63.60;95957.41;4989381;28;20357;-64
2023/01/04 07:08:11;;;;;;;13.97;11.27;;;;;;;9.36;62.31;95956.56;4986280;28;20223;-64
2023/01/04 07:10:36;;;;;;;12.83;10.80;;;;;;;9.23;62.70;95968.03;4983305;28;20208;-66
2023/01/04 07:13:02;;;;;;;12.77;11.33;;;;;;;9.22;62.56;95966.38;4982392;28;20207;-67
2023/01/04 07:15:28;;;;;;;12.63;11.33;;;;;;;9.44;61.79;95978.63;4988871;28;20225;-71
2023/01/04 07:17:53;;;;;;;12.07;10.67;;;;;;;9.53;61.20;95976.22;4982292;28;20227;-67
2023/01/04 07:20:19;;;;;;;13.63;10.40;;;;;;;9.59;61.07;95973.09;4988910;28;20198;-68
2023/01/04 07:22:44;;;;;;;12.40;10.67;;;;;;;9.61;61.09;95979.09;5002709;28;20233;-67
2023/01/04 07:25:10;;;;;;;14.40;11.13;;;;;;;9.54;61.08;95978.72;4998261;28;20233;-67
2023/01/04 07:27:35;;;;;;;11.20;10.00;;;;;;;9.42;61.95;95984.97;5016383;28;20222;-68
2023/01/04 07:30:01;;;;;;;13.43;11.07;;;;;;;9.64;61.28;95994.59;4997212;28;20273;-64
2023/01/04 07:32:26;;;;;;;16.13;11.60;;;;;;;9.70;60.75;95980.97;4994680;28;20192;-65
2023/01/04 07:34:51;;;;;;;13.37;11.97;;;;;;;9.50;61.68;95986.00;5002872;28;20221;-65
2023/01/04 07:37:17;;;;;;;13.03;11.33;;;;;;;9.65;61.04;95994.47;5016985;28;20226;-64
2023/01/04 07:39:43;;;;;;;13.70;11.33;;;;;;;9.74;60.95;95994.69;5004456;28;20643;-64
2023/01/04 07:42:09;;;;;;;13.30;11.53;;;;;;;9.67;61.19;95984.66;4995125;28;20305;-65
2023/01/04 07:44:35;;;;;;;13.70;11.63;;;;;;;9.61;60.85;95985.16;5005482;28;20294;-65
2023/01/04 07:47:01;;;;;;;13.13;11.77;;;;;;;9.39;61.56;95985.22;5021883;28;20274;-64
2023/01/04 07:49:26;;;;;;;13.23;11.13;;;;;;;9.54;61.04;95986.59;5005851;28;20222;-68
2023/01/04 07:51:51;;;;;;;12.30;10.90;;;;;;;9.62;61.65;95988.63;5007652;28;20334;-68
2023/01/04 07:54:17;;;;;;;15.30;12.03;;;;;;;9.68;61.12;95977.66;5008559;28;20227;-67
2023/01/04 07:56:44;;;;;;;13.93;10.93;;;;;;;9.86;60.41;95984.06;5010140;28;20231;-68
2023/01/04 07:59:11;;;;;;;14.03;11.27;;;;;;;9.97;60.34;95996.31;4998433;28;20187;-66
2023/01/04 08:01:37;;;;;;;13.57;11.33;;;;;;;9.88;60.07;95999.69;5012818;28;20233;-69
2023/01/04 08:04:04;;;;;;;15.60;11.43;;;;;;;10.00;60.03;96001.31;5019935;28;20219;-69
2023/01/04 08:06:30;;;;;;;12.73;11.20;;;;;;;9.98;60.00;96002.41;5007187;28;20222;-68
2023/01/04 08:08:57;;;;;;;14.13;11.63;;;;;;;9.85;60.32;95994.66;5021140;28;20249;-69
2023/01/04 08:11:23;;;;;;;14.50;12.37;;;;;;;9.97;59.94;96000.72;5005061;28;20464;-67
2023/01/04 08:13:49;;;;;;;13.33;11.93;;;;;;;9.93;59.91;95998.34;5006002;28;20266;-67
2023/01/04 08:16:22;;;;;;;14.53;10.83;;;;;;;9.87;60.38;96001.47;5008363;28;20231;-69
2023/01/04 08:18:53;;;;;;;11.07;9.93;;;;;;;10.07;59.16;96012.16;5008357;28;20219;-66
2023/01/04 08:21:18;;;;;;;10.80;9.70;;;;;;;10.08;59.33;96013.84;5006134;28;20224;-67
2023/01/04 08:23:43;;;;;;;12.30;9.87;;;;;;;10.02;59.08;95995.94;4989014;28;20230;-68
2023/01/04 08:26:11;;;;;;;13.17;10.83;;;;;;;9.72;60.06;96000.06;4998717;28;20199;-67
2023/01/04 08:28:37;;;;;;;13.20;11.13;;;;;;;9.98;59.78;96005.88;5001029;28;20251;-69
2023/01/04 08:31:33;;;;;;;12.13;10.33;;;;;;;10.03;59.26;96006.31;5006588;28;20253;-69
2023/01/04 08:34:02;;;;;;;12.37;10.63;;;;;;;10.06;59.26;96008.69;4998984;28;20224;-71
2023/01/04 08:36:33;;;;;;;13.30;11.23;;;;;;;9.64;60.68;96008.56;4994954;28;20226;-71
2023/01/04 08:39:00;;;;;;;13.40;10.83;;;;;;;9.94;59.84;95996.53;5000837;28;20216;-69
2023/01/04 08:41:26;;;;;;;13.30;11.27;;;;;;;9.95;59.32;96011.38;4983584;28;20202;-68
2023/01/04 08:43:52;;;;;;;12.60;11.13;;;;;;;9.71;59.77;96007.13;5007945;28;20222;-69
2023/01/04 08:46:17;;;;;;;12.73;11.43;;;;;;;9.68;60.08;95996.84;5005420;28;20226;-66
2023/01/04 08:48:43;;;;;;;13.33;11.27;;;;;;;9.62;60.68;96007.00;5012420;28;20230;-67
2023/01/04 08:51:11;;;;;;;13.53;12.13;;;;;;;9.74;60.52;96008.66;5004154;28;20276;-67
2023/01/04 08:53:37;;;;;;;15.70;11.77;;;;;;;9.81;60.62;96006.38;5023506;28;20246;-66
2023/01/04 08:56:04;;;;;;;13.30;11.73;;;;;;;9.88;60.46;96010.19;5023685;28;20190;-65
2023/01/04 08:58:31;;;;;;;14.30;12.47;;;;;;;9.88;60.03;96008.38;4997690;28;20239;-65
2023/01/04 09:01:08;;;;;;;12.57;10.93;;;;;;;9.93;59.43;96008.03;5003880;28;20307;-66
2023/01/04 09:03:34;;;;;;;12.23;11.03;;;;;;;9.90;59.71;96011.72;5008795;28;20227;-67
2023/01/04 09:06:08;;;;;;;13.00;10.93;;;;;;;9.89;59.33;96019.72;5003991;28;20246;-67
2023/01/04 09:08:34;;;;;;;13.57;11.87;;;;;;;9.80;59.95;96002.09;5005106;28;20207;-67
2023/01/04 09:11:05;;;;;;;14.57;11.97;;;;;;;9.86;59.75;96004.22;5006419;28;20403;-68
2023/01/04 09:13:31;;;;;;;13.83;12.10;;;;;;;9.97;59.42;96017.34;5001299;28;20231;-68
2023/01/04 09:16:08;;;;;;;15.00;12.40;;;;;;;9.78;59.67;96002.19;5003052;28;20232;-66
2023/01/04 09:18:34;;;;;;;15.20;12.37;;;;;;;9.84;59.77;96004.34;4987641;28;20219;-67
2023/01/04 09:21:09;;;;;;;12.50;10.93;;;;;;;9.96;59.40;96001.69;5003354;28;20241;-67
2023/01/04 09:23:37;;;;;;;15.73;12.03;;;;;;;9.79;59.91;96000.44;4990029;28;20230;-70
2023/01/04 09:26:08;;;;;;;14.23;12.73;;;;;;;9.72;59.40;95993.00;4990111;28;20195;-66
2023/01/04 09:28:34;;;;;;;15.90;13.23;;;;;;;9.78;59.57;95990.84;4997395;28;20294;-68
2023/01/04 09:31:11;;;;;;;16.20;13.10;;;;;;;9.86;59.14;96004.22;4983308;28;20412;-67
2023/01/04 09:33:37;;;;;;;14.90;13.40;;;;;;;9.82;59.55;95993.13;4985554;28;20319;-69
2023/01/04 09:36:04;;;;;;;14.80;12.77;;;;;;;9.48;60.09;96006.31;4998568;28;20291;-67
2023/01/04 09:38:31;;;;;;;14.13;11.23;;;;;;;9.50;59.25;95995.69;4982885;28;20243;-68
2023/01/04 09:41:19;;;;;;;12.73;10.47;;;;;;;9.53;59.15;95995.44;4986257;28;20187;-67
2023/01/04 09:43:47;;;;;;;11.67;10.47;;;;;;;9.66;58.88;95988.25;4999550;28;20377;-68
2023/01/04 09:46:33;;;;;;;11.97;10.77;;;;;;;9.79;58.58;95989.91;5008340;28;20219;-67
2023/01/04 09:49:20;;;;;;;12.13;10.13;;;;;;;9.96;57.86;95992.00;5019858;28;20227;-69
2023/01/04 09:52:09;;;;;;;14.13;10.47;;;;;;;9.96;57.40;95994.63;5007127;28;20226;-68
2023/01/04 09:55:02;;;;;;;10.60;9.50;;;;;;;9.73;58.63;95988.63;4991942;28;20227;-68
2023/01/04 09:57:47;;;;;;;13.40;10.33;;;;;;;9.74;58.44;95987.66;5001648;28;20247;-66
2023/01/04 10:00:19;;;;;;;10.70;9.50;;;;;;;9.77;58.42;95983.94;5019354;28;20226;-68
2023/01/04 10:02:50;;;;;;;11.70;10.47;;;;;;;9.81;58.24;95990.59;5005477;28;20222;-68
2023/01/04 10:05:22;;;;;;;11.33;10.20;;;;;;;9.50;59.59;95990.44;4999825;28;20462;-69
2023/01/04 10:07:48;;;;;;;10.90;9.70;;;;;;;9.47;59.32;95982.81;4980852;28;20196;-67
2023/01/04 10:10:35;;;;;;;12.07;10.17;;;;;;;9.59;59.49;95976.56;4988969;28;20228;-69
2023/01/04 10:13:16;;;;;;;13.30;10.90;;;;;;;9.64;59.20;95984.91;4999508;28;20404;-70
2023/01/04 10:16:00;;;;;;;12.60;10.53;;;;;;;9.59;59.53;95986.25;4999413;28;20219;-70
2023/01/04 10:18:44;;;;;;;15.07;10.83;;;;;;;9.88;58.36;95990.00;5000789;28;20223;-69
2023/01/04 10:21:28;;;;;;;12.07;9.73;;;;;;;9.68;59.03;95983.72;4990104;28;20261;-67
2023/01/04 10:24:13;;;;;;;11.63;10.43;;;;;;;9.60;59.05;95985.31;4989470;28;20246;-69
2023/01/04 10:26:46;;;;;;;11.47;9.63;;;;;;;9.77;58.29;95989.19;5017856;28;20227;-68
2023/01/04 10:29:25;;;;;;;11.93;9.73;;;;;;;9.65;59.21;95980.50;5014540;28;20223;-68
2023/01/04 10:32:04;;;;;;;12.40;10.60;;;;;;;9.77;58.80;95983.94;5016438;28;20322;-68
2023/01/04 10:34:42;;;;;;;11.67;9.90;;;;;;;9.85;58.68;95986.78;4989429;28;20220;-68
2023/01/04 10:37:19;;;;;;;11.23;10.13;;;;;;;9.81;58.83;95980.09;5001567;28;20226;-67
2023/01/04 10:39:49;;;;;;;13.40;10.63;;;;;;;9.96;58.26;95983.31;5001310;28;20227;-68
2023/01/04 10:42:31;;;;;;;13.40;10.23;;;;;;;10.03;58.49;95979.22;5013451;28;20237;-68
2023/01/04 10:45:21;;;;;;;14.40;11.10;;;;;;;10.16;58.17;95985.16;5010878;28;20224;-68
2023/01/04 10:48:14;;;;;;;12.43;11.00;;;;;;;10.02;58.16;95986.25;4980862;28;20284;-68
2023/01/04 10:50:57;;;;;;;16.40;12.33;;;;;;;9.60;60.04;95980.06;4978393;28;20251;-67
2023/01/04 10:53:55;;;;;;;13.47;11.73;;;;;;;9.59;60.07;95994.94;4998693;28;20259;-67
2023/01/04 10:56:33;;;;;;;14.33;11.00;;;;;;;9.62;60.00;95975.50;4997224;28;20215;-66
2023/01/04 10:59:14;;;;;;;13.20;11.40;;;;;;;9.75;59.83;95980.59;5000080;28;20286;-67
2023/01/04 11:01:45;;;;;;;14.10;11.33;;;;;;;9.81;59.62;95973.09;5018929;28;20377;-67
2023/01/04 11:04:38;;;;;;;14.13;10.93;;;;;;;9.80;59.37;95978.44;4998539;28;20237;-67
2023/01/04 11:07:11;;;;;;;15.60;10.47;;;;;;;9.65;59.92;95965.59;5002521;28;20230;-66
2023/01/04 11:09:51;;;;;;;12.57;11.20;;;;;;;9.63;60.19;95967.50;5001326;28;20312;-67
2023/01/04 11:12:20;;;;;;;14.53;11.50;;;;;;;9.99;59.52;95972.53;5017498;28;20626;-67
2023/01/04 11:14:46;;;;;;;11.97;10.60;;;;;;;10.06;58.63;95979.81;5007635;28;20231;-67
2023/01/04 11:17:11;;;;;;;12.60;10.53;;;;;;;10.13;58.30;95964.34;5003416;28;20182;-68
2023/01/04 11:19:38;;;;;;;12.80;10.17;;;;;;;10.21;57.87;95966.34;5001170;28;20310;-67
2023/01/04 11:22:13;;;;;;;12.67;10.77;;;;;;;10.11;58.01;95966.28;5013605;28;21324;-68
2023/01/04 11:24:41;;;;;;;11.70;10.40;;;;;;;10.09;58.50;95952.44;4995925;28;20278;-68
2023/01/04 11:27:13;;;;;;;11.93;10.57;;;;;;;10.16;58.26;95950.97;4978678;28;20260;-68
2023/01/04 11:30:02;;;;;;;13.30;9.90;;;;;;;10.04;58.56;95947.56;4988519;28;20222;-68
2023/01/04 11:32:46;;;;;;;11.50;9.50;;;;;;;9.94;58.82;95944.00;5000643;28;20225;-69
2023/01/04 11:35:12;;;;;;;10.07;8.90;;;;;;;10.28;57.77;95938.63;4999298;28;20265;-69
2023/01/04 11:37:40;;;;;;;11.23;9.10;;;;;;;10.51;56.92;95932.31;4997617;28;20914;-68
2023/01/04 11:40:17;;;;;;;10.47;9.37;;;;;;;10.74;56.61;95932.16;5001772;28;20210;-69
2023/01/04 11:42:44;;;;;;;10.63;9.07;;;;;;;10.77;56.48;95932.75;5006403;28;20702;-68
2023/01/04 11:45:27;;;;;;;11.87;10.03;;;;;;;10.65;56.80;95931.13;5006009;28;20223;-68
2023/01/04 11:47:52;;;;;;;9.93;8.93;;;;;;;11.07;55.55;95932.88;5004945;28;20227;-68
2023/01/04 11:50:45;;;;;;;10.97;9.37;;;;;;;10.39;56.97;95928.06;5006556;28;20207;-68
2023/01/04 11:53:34;;;;;;;10.63;9.53;;;;;;;10.61;57.02;95927.09;4990819;28;20312;-69
2023/01/04 11:56:18;;;;;;;10.77;9.77;;;;;;;10.88;56.23;95917.81;4991952;28;20270;-69
2023/01/04 11:59:01;;;;;;;9.93;8.90;;;;;;;10.74;55.93;95914.56;4993660;28;20309;-68
2023/01/04 12:01:26;;;;;;;9.73;8.73;;;;;;;10.80;55.76;95915.88;5006031;28;20371;-66
2023/01/04 12:03:51;;;;;;;9.63;8.63;;;;;;;10.72;56.25;95910.38;4990510;28;20342;-68
2023/01/04 12:06:38;;;;;;;11.00;9.20;;;;;;;11.06;55.44;95916.22;5005742;28;20601;-68
2023/01/04 12:09:04;;;;;;;10.40;9.30;;;;;;;11.11;55.26;95908.78;5008696;28;20231;-67
2023/01/04 12:11:34;;;;;;;10.73;9.60;;;;;;;11.35;54.62;95911.06;4990498;28;20203;-68
2023/01/04 12:13:59;;;;;;;10.50;9.30;;;;;;;11.69;53.98;95908.91;5010191;28;20191;-68
2023/01/04 12:16:41;;;;;;;11.43;9.13;;;;;;;11.87;53.51;95909.13;4991798;28;20339;-67
2023/01/04 12:19:12;;;;;;;10.70;9.27;;;;;;;12.38;51.53;95907.16;4987265;28;20322;-69
2023/01/04 12:21:39;;;;;;;10.97;9.53;;;;;;;12.47;51.34;95908.94;5006581;28;20222;-67
2023/01/04 12:24:06;;;;;;;10.00;9.00;;;;;;;12.31;51.75;95892.84;5009739;28;20230;-67
2023/01/04 12:26:32;;;;;;;9.77;8.47;;;;;;;11.79;52.98;95916.03;5008654;28;20194;-66
2023/01/04 12:29:22;;;;;;;9.43;8.43;;;;;;;11.77;53.13;95910.03;5004043;28;20207;-66